sensor_id;sensor_type;location;lat;lon;timestamp;P1;durP1;ratioP1;P2;durP2;ratioP2
22955;SDS011;40888;48.148;11.526;2022-08-14T00:01:23;5.97;;;4.80;;
22955;SDS011;40888;48.148;11.526;2022-08-14T00:03:49;5.03;;;4.55;;
22955;SDS011;40888;48.148;11.526;2022-08-14T00:06:15;6.00;;;4.45;;
22955;SDS011;40888;48.148;11.526;2022-08-14T00:08:41;6.07;;;4.80;;
22955;SDS011;40888;48.148;11.526;2022-08-14T00:11:08;6.05;;;4.80;;
22955;SDS011;40888;48.148;11.526;2022-08-14T00:13:34;5.85;;;5.25;;
22955;SDS011;40888;48.148;11.526;2022-08-14T00:16:01;5.97;;;5.38;;
22955;SDS011;40888;48.148;11.526;2022-08-14T00:18:27;5.68;;;4.80;;
22955;SDS011;40888;48.148;11.526;2022-08-14T00:20:54;5.45;;;4.85;;
22955;SDS011;40888;48.148;11.526;2022-08-14T00:23:21;6.20;;;5.30;;
22955;SDS011;40888;48.148;11.526;2022-08-14T00:25:49;8.98;;;5.78;;
22955;SDS011;40888;48.148;11.526;2022-08-14T00:28:15;6.68;;;5.30;;
22955;SDS011;40888;48.148;11.526;2022-08-14T00:30:41;7.20;;;5.65;;
22955;SDS011;40888;48.148;11.526;2022-08-14T00:33:08;9.02;;;6.18;;
22955;SDS011;40888;48.148;11.526;2022-08-14T00:35:34;7.68;;;5.93;;
22955;SDS011;40888;48.148;11.526;2022-08-14T00:38:00;6.43;;;5.32;;
22955;SDS011;40888;48.148;11.526;2022-08-14T00:40:27;6.32;;;5.70;;
22955;SDS011;40888;48.148;11.526;2022-08-14T00:42:53;6.32;;;5.70;;
22955;SDS011;40888;48.148;11.526;2022-08-14T00:45:19;8.35;;;6.38;;
22955;SDS011;40888;48.148;11.526;2022-08-14T00:47:46;9.10;;;5.72;;
22955;SDS011;40888;48.148;11.526;2022-08-14T00:50:14;6.03;;;5.45;;
22955;SDS011;40888;48.148;11.526;2022-08-14T00:52:42;7.75;;;5.95;;
22955;SDS011;40888;48.148;11.526;2022-08-14T00:55:10;7.07;;;6.00;;
22955;SDS011;40888;48.148;11.526;2022-08-14T00:57:36;6.60;;;5.82;;
22955;SDS011;40888;48.148;11.526;2022-08-14T01:00:04;5.88;;;5.38;;
22955;SDS011;40888;48.148;11.526;2022-08-14T01:02:31;6.63;;;5.95;;
22955;SDS011;40888;48.148;11.526;2022-08-14T01:04:58;7.43;;;5.80;;
22955;SDS011;40888;48.148;11.526;2022-08-14T01:07:25;7.47;;;5.90;;
22955;SDS011;40888;48.148;11.526;2022-08-14T01:09:58;9.65;;;5.38;;
22955;SDS011;40888;48.148;11.526;2022-08-14T01:12:26;6.05;;;5.40;;
22955;SDS011;40888;48.148;11.526;2022-08-14T01:14:52;6.32;;;5.72;;
22955;SDS011;40888;48.148;11.526;2022-08-14T01:17:20;7.63;;;5.88;;
22955;SDS011;40888;48.148;11.526;2022-08-14T01:19:46;6.22;;;5.63;;
22955;SDS011;40888;48.148;11.526;2022-08-14T01:22:31;7.82;;;5.57;;
22955;SDS011;40888;48.148;11.526;2022-08-14T01:24:58;9.52;;;6.22;;
22955;SDS011;40888;48.148;11.526;2022-08-14T01:27:24;5.95;;;5.22;;
22955;SDS011;40888;48.148;11.526;2022-08-14T01:29:54;8.52;;;6.20;;
22955;SDS011;40888;48.148;11.526;2022-08-14T01:32:20;8.05;;;6.55;;
22955;SDS011;40888;48.148;11.526;2022-08-14T01:34:48;9.93;;;6.35;;
22955;SDS011;40888;48.148;11.526;2022-08-14T01:37:15;6.80;;;5.50;;
22955;SDS011;40888;48.148;11.526;2022-08-14T01:39:41;7.70;;;5.95;;
22955;SDS011;40888;48.148;11.526;2022-08-14T01:42:08;6.20;;;5.60;;
22955;SDS011;40888;48.148;11.526;2022-08-14T01:44:34;10.23;;;6.38;;
22955;SDS011;40888;48.148;11.526;2022-08-14T01:47:06;7.80;;;5.88;;
22955;SDS011;40888;48.148;11.526;2022-08-14T01:49:39;6.32;;;5.72;;
22955;SDS011;40888;48.148;11.526;2022-08-14T01:52:06;6.20;;;5.60;;
22955;SDS011;40888;48.148;11.526;2022-08-14T01:54:33;6.63;;;5.80;;
22955;SDS011;40888;48.148;11.526;2022-08-14T01:57:00;6.93;;;5.13;;
22955;SDS011;40888;48.148;11.526;2022-08-14T01:59:27;6.03;;;5.53;;
22955;SDS011;40888;48.148;11.526;2022-08-14T02:01:57;6.78;;;4.97;;
22955;SDS011;40888;48.148;11.526;2022-08-14T02:04:24;6.65;;;5.95;;
22955;SDS011;40888;48.148;11.526;2022-08-14T02:06:51;7.50;;;5.82;;
22955;SDS011;40888;48.148;11.526;2022-08-14T02:09:17;6.70;;;6.00;;
22955;SDS011;40888;48.148;11.526;2022-08-14T02:11:44;6.28;;;5.68;;
22955;SDS011;40888;48.148;11.526;2022-08-14T02:14:11;7.07;;;5.90;;
22955;SDS011;40888;48.148;11.526;2022-08-14T02:16:39;6.63;;;5.45;;
22955;SDS011;40888;48.148;11.526;2022-08-14T02:19:06;7.25;;;5.45;;
22955;SDS011;40888;48.148;11.526;2022-08-14T02:21:33;7.15;;;5.15;;
22955;SDS011;40888;48.148;11.526;2022-08-14T02:24:01;6.25;;;5.63;;
22955;SDS011;40888;48.148;11.526;2022-08-14T02:26:29;6.10;;;5.10;;
22955;SDS011;40888;48.148;11.526;2022-08-14T02:28:57;7.10;;;5.55;;
22955;SDS011;40888;48.148;11.526;2022-08-14T02:31:27;5.22;;;4.70;;
22955;SDS011;40888;48.148;11.526;2022-08-14T02:33:57;6.97;;;5.25;;
22955;SDS011;40888;48.148;11.526;2022-08-14T02:36:24;5.03;;;4.40;;
22955;SDS011;40888;48.148;11.526;2022-08-14T02:38:51;5.13;;;4.63;;
22955;SDS011;40888;48.148;11.526;2022-08-14T02:41:18;4.95;;;4.18;;
22955;SDS011;40888;48.148;11.526;2022-08-14T02:43:44;6.97;;;4.47;;
22955;SDS011;40888;48.148;11.526;2022-08-14T02:46:10;5.05;;;4.30;;
22955;SDS011;40888;48.148;11.526;2022-08-14T02:48:37;5.25;;;4.75;;
22955;SDS011;40888;48.148;11.526;2022-08-14T02:51:05;5.63;;;4.38;;
22955;SDS011;40888;48.148;11.526;2022-08-14T02:53:31;4.60;;;4.20;;
22955;SDS011;40888;48.148;11.526;2022-08-14T02:55:58;5.55;;;4.25;;
22955;SDS011;40888;48.148;11.526;2022-08-14T02:58:25;4.93;;;4.43;;
22955;SDS011;40888;48.148;11.526;2022-08-14T03:00:52;4.80;;;4.28;;
22955;SDS011;40888;48.148;11.526;2022-08-14T03:03:19;5.35;;;4.82;;
22955;SDS011;40888;48.148;11.526;2022-08-14T03:05:48;4.80;;;4.40;;
22955;SDS011;40888;48.148;11.526;2022-08-14T03:08:15;7.03;;;4.10;;
22955;SDS011;40888;48.148;11.526;2022-08-14T03:10:42;5.68;;;4.47;;
22955;SDS011;40888;48.148;11.526;2022-08-14T03:13:08;5.03;;;4.60;;
22955;SDS011;40888;48.148;11.526;2022-08-14T03:15:34;6.75;;;4.80;;
22955;SDS011;40888;48.148;11.526;2022-08-14T03:18:09;5.40;;;4.78;;
22955;SDS011;40888;48.148;11.526;2022-08-14T03:20:35;6.38;;;4.55;;
22955;SDS011;40888;48.148;11.526;2022-08-14T03:23:01;5.35;;;4.82;;
22955;SDS011;40888;48.148;11.526;2022-08-14T03:25:29;4.97;;;4.50;;
22955;SDS011;40888;48.148;11.526;2022-08-14T03:28:02;7.10;;;4.82;;
22955;SDS011;40888;48.148;11.526;2022-08-14T03:30:29;5.05;;;4.13;;
22955;SDS011;40888;48.148;11.526;2022-08-14T03:32:55;4.60;;;4.20;;
22955;SDS011;40888;48.148;11.526;2022-08-14T03:35:22;5.70;;;4.22;;
22955;SDS011;40888;48.148;11.526;2022-08-14T03:37:48;4.95;;;4.45;;
22955;SDS011;40888;48.148;11.526;2022-08-14T03:40:21;4.80;;;4.40;;
22955;SDS011;40888;48.148;11.526;2022-08-14T03:42:49;5.43;;;4.40;;
22955;SDS011;40888;48.148;11.526;2022-08-14T03:45:15;5.13;;;4.63;;
22955;SDS011;40888;48.148;11.526;2022-08-14T03:47:42;5.00;;;4.53;;
22955;SDS011;40888;48.148;11.526;2022-08-14T03:50:09;6.45;;;4.68;;
22955;SDS011;40888;48.148;11.526;2022-08-14T03:52:36;4.32;;;3.88;;
22955;SDS011;40888;48.148;11.526;2022-08-14T03:55:06;4.88;;;3.92;;
22955;SDS011;40888;48.148;11.526;2022-08-14T03:57:32;6.43;;;4.60;;
22955;SDS011;40888;48.148;11.526;2022-08-14T04:00:00;4.10;;;3.70;;
22955;SDS011;40888;48.148;11.526;2022-08-14T04:02:29;4.43;;;3.70;;
22955;SDS011;40888;48.148;11.526;2022-08-14T04:04:55;5.50;;;4.00;;
22955;SDS011;40888;48.148;11.526;2022-08-14T04:07:21;6.18;;;4.03;;
22955;SDS011;40888;48.148;11.526;2022-08-14T04:09:47;4.40;;;4.00;;
22955;SDS011;40888;48.148;11.526;2022-08-14T04:12:14;4.38;;;4.07;;
22955;SDS011;40888;48.148;11.526;2022-08-14T04:14:43;4.88;;;3.80;;
22955;SDS011;40888;48.148;11.526;2022-08-14T04:17:09;4.18;;;3.78;;
22955;SDS011;40888;48.148;11.526;2022-08-14T04:19:35;5.05;;;3.53;;
22955;SDS011;40888;48.148;11.526;2022-08-14T04:22:02;4.70;;;4.20;;
22955;SDS011;40888;48.148;11.526;2022-08-14T04:24:28;4.60;;;4.10;;
22955;SDS011;40888;48.148;11.526;2022-08-14T04:26:54;4.75;;;4.30;;
22955;SDS011;40888;48.148;11.526;2022-08-14T04:29:21;4.28;;;3.97;;
22955;SDS011;40888;48.148;11.526;2022-08-14T04:31:47;5.47;;;4.10;;
22955;SDS011;40888;48.148;11.526;2022-08-14T04:34:15;4.18;;;3.83;;
22955;SDS011;40888;48.148;11.526;2022-08-14T04:36:41;4.77;;;4.40;;
22955;SDS011;40888;48.148;11.526;2022-08-14T04:39:26;4.20;;;3.90;;
22955;SDS011;40888;48.148;11.526;2022-08-14T04:42:11;4.50;;;4.10;;
22955;SDS011;40888;48.148;11.526;2022-08-14T04:44:56;4.70;;;4.30;;
22955;SDS011;40888;48.148;11.526;2022-08-14T04:47:22;5.87;;;4.03;;
22955;SDS011;40888;48.148;11.526;2022-08-14T04:50:07;4.67;;;4.27;;
22955;SDS011;40888;48.148;11.526;2022-08-14T04:52:33;6.63;;;4.80;;
22955;SDS011;40888;48.148;11.526;2022-08-14T04:54:59;4.87;;;4.47;;
22955;SDS011;40888;48.148;11.526;2022-08-14T04:57:27;3.90;;;3.63;;
22955;SDS011;40888;48.148;11.526;2022-08-14T04:59:53;4.60;;;4.17;;
22955;SDS011;40888;48.148;11.526;2022-08-14T05:02:20;4.23;;;3.90;;
22955;SDS011;40888;48.148;11.526;2022-08-14T05:04:48;3.70;;;3.50;;
22955;SDS011;40888;48.148;11.526;2022-08-14T05:07:14;4.00;;;3.70;;
22955;SDS011;40888;48.148;11.526;2022-08-14T05:09:40;3.97;;;3.67;;
22955;SDS011;40888;48.148;11.526;2022-08-14T05:12:07;3.83;;;3.53;;
22955;SDS011;40888;48.148;11.526;2022-08-14T05:14:34;4.18;;;3.88;;
22955;SDS011;40888;48.148;11.526;2022-08-14T05:17:00;4.07;;;3.77;;
22955;SDS011;40888;48.148;11.526;2022-08-14T05:19:26;3.70;;;3.43;;
22955;SDS011;40888;48.148;11.526;2022-08-14T05:21:52;4.10;;;3.80;;
22955;SDS011;40888;48.148;11.526;2022-08-14T05:24:24;4.20;;;3.80;;
22955;SDS011;40888;48.148;11.526;2022-08-14T05:26:50;4.13;;;3.70;;
22955;SDS011;40888;48.148;11.526;2022-08-14T05:29:16;3.65;;;3.42;;
22955;SDS011;40888;48.148;11.526;2022-08-14T05:31:42;3.45;;;3.25;;
22955;SDS011;40888;48.148;11.526;2022-08-14T05:34:08;3.75;;;3.53;;
22955;SDS011;40888;48.148;11.526;2022-08-14T05:36:36;3.60;;;3.40;;
22955;SDS011;40888;48.148;11.526;2022-08-14T05:39:02;3.78;;;3.47;;
22955;SDS011;40888;48.148;11.526;2022-08-14T05:41:29;3.78;;;3.47;;
22955;SDS011;40888;48.148;11.526;2022-08-14T05:43:57;3.85;;;3.45;;
22955;SDS011;40888;48.148;11.526;2022-08-14T05:46:23;3.25;;;3.05;;
22955;SDS011;40888;48.148;11.526;2022-08-14T05:48:54;3.80;;;3.50;;
22955;SDS011;40888;48.148;11.526;2022-08-14T05:51:21;3.65;;;3.35;;
22955;SDS011;40888;48.148;11.526;2022-08-14T05:53:48;3.35;;;3.15;;
22955;SDS011;40888;48.148;11.526;2022-08-14T05:56:14;3.75;;;3.45;;
22955;SDS011;40888;48.148;11.526;2022-08-14T05:58:40;3.47;;;3.13;;
22955;SDS011;40888;48.148;11.526;2022-08-14T06:01:07;3.58;;;3.33;;
22955;SDS011;40888;48.148;11.526;2022-08-14T06:03:34;3.53;;;3.17;;
22955;SDS011;40888;48.148;11.526;2022-08-14T06:06:00;3.80;;;3.40;;
22955;SDS011;40888;48.148;11.526;2022-08-14T06:08:27;2.85;;;2.65;;
22955;SDS011;40888;48.148;11.526;2022-08-14T06:10:54;3.85;;;2.92;;
22955;SDS011;40888;48.148;11.526;2022-08-14T06:13:21;3.10;;;2.80;;
22955;SDS011;40888;48.148;11.526;2022-08-14T06:15:48;3.50;;;3.17;;
22955;SDS011;40888;48.148;11.526;2022-08-14T06:18:15;4.10;;;2.80;;
22955;SDS011;40888;48.148;11.526;2022-08-14T06:20:42;3.40;;;3.10;;
22955;SDS011;40888;48.148;11.526;2022-08-14T06:23:08;3.65;;;3.10;;
22955;SDS011;40888;48.148;11.526;2022-08-14T06:25:35;3.55;;;2.75;;
22955;SDS011;40888;48.148;11.526;2022-08-14T06:28:01;4.05;;;3.13;;
22955;SDS011;40888;48.148;11.526;2022-08-14T06:30:29;4.80;;;2.80;;
22955;SDS011;40888;48.148;11.526;2022-08-14T06:32:55;4.53;;;3.20;;
22955;SDS011;40888;48.148;11.526;2022-08-14T06:35:21;3.50;;;3.20;;
22955;SDS011;40888;48.148;11.526;2022-08-14T06:37:51;3.00;;;2.80;;
22955;SDS011;40888;48.148;11.526;2022-08-14T06:40:19;3.80;;;3.03;;
22955;SDS011;40888;48.148;11.526;2022-08-14T06:42:46;4.47;;;3.15;;
22955;SDS011;40888;48.148;11.526;2022-08-14T06:45:12;3.08;;;2.85;;
22955;SDS011;40888;48.148;11.526;2022-08-14T06:47:40;2.83;;;2.63;;
22955;SDS011;40888;48.148;11.526;2022-08-14T06:50:08;2.58;;;2.38;;
22955;SDS011;40888;48.148;11.526;2022-08-14T06:52:35;3.78;;;2.85;;
22955;SDS011;40888;48.148;11.526;2022-08-14T06:55:02;3.25;;;3.03;;
22955;SDS011;40888;48.148;11.526;2022-08-14T06:58:02;3.20;;;3.00;;
22955;SDS011;40888;48.148;11.526;2022-08-14T07:00:24;2.97;;;2.78;;
22955;SDS011;40888;48.148;11.526;2022-08-14T07:02:51;2.97;;;2.78;;
22955;SDS011;40888;48.148;11.526;2022-08-14T07:05:36;2.72;;;2.53;;
22955;SDS011;40888;48.148;11.526;2022-08-14T07:08:19;2.60;;;2.40;;
22955;SDS011;40888;48.148;11.526;2022-08-14T07:10:47;3.15;;;2.85;;
22955;SDS011;40888;48.148;11.526;2022-08-14T07:13:14;3.05;;;2.80;;
22955;SDS011;40888;48.148;11.526;2022-08-14T07:15:43;2.92;;;2.72;;
22955;SDS011;40888;48.148;11.526;2022-08-14T07:18:11;3.33;;;3.03;;
22955;SDS011;40888;48.148;11.526;2022-08-14T07:20:38;4.35;;;3.15;;
22955;SDS011;40888;48.148;11.526;2022-08-14T07:23:05;5.95;;;3.17;;
22955;SDS011;40888;48.148;11.526;2022-08-14T07:25:32;5.63;;;3.25;;
22955;SDS011;40888;48.148;11.526;2022-08-14T07:27:59;3.00;;;2.70;;
22955;SDS011;40888;48.148;11.526;2022-08-14T07:30:25;3.00;;;2.70;;
22955;SDS011;40888;48.148;11.526;2022-08-14T07:32:51;3.75;;;2.83;;
22955;SDS011;40888;48.148;11.526;2022-08-14T07:35:18;3.35;;;2.72;;
22955;SDS011;40888;48.148;11.526;2022-08-14T07:37:47;2.53;;;2.35;;
22955;SDS011;40888;48.148;11.526;2022-08-14T07:40:14;5.38;;;2.72;;
22955;SDS011;40888;48.148;11.526;2022-08-14T07:42:41;5.40;;;2.45;;
22955;SDS011;40888;48.148;11.526;2022-08-14T07:45:08;2.60;;;2.40;;
22955;SDS011;40888;48.148;11.526;2022-08-14T07:47:38;2.78;;;2.58;;
22955;SDS011;40888;48.148;11.526;2022-08-14T07:50:07;2.72;;;2.53;;
22955;SDS011;40888;48.148;11.526;2022-08-14T07:52:36;2.78;;;2.58;;
22955;SDS011;40888;48.148;11.526;2022-08-14T07:55:05;2.60;;;2.40;;
22955;SDS011;40888;48.148;11.526;2022-08-14T07:57:31;2.80;;;2.60;;
22955;SDS011;40888;48.148;11.526;2022-08-14T07:59:58;3.25;;;2.90;;
22955;SDS011;40888;48.148;11.526;2022-08-14T08:02:25;3.30;;;2.60;;
22955;SDS011;40888;48.148;11.526;2022-08-14T08:04:52;3.17;;;2.80;;
22955;SDS011;40888;48.148;11.526;2022-08-14T08:07:19;3.05;;;2.75;;
22955;SDS011;40888;48.148;11.526;2022-08-14T08:09:49;2.90;;;2.70;;
22955;SDS011;40888;48.148;11.526;2022-08-14T08:12:18;4.63;;;2.50;;
22955;SDS011;40888;48.148;11.526;2022-08-14T08:14:45;2.65;;;2.45;;
22955;SDS011;40888;48.148;11.526;2022-08-14T08:17:12;3.72;;;2.70;;
22955;SDS011;40888;48.148;11.526;2022-08-14T08:19:39;2.97;;;2.45;;
22955;SDS011;40888;48.148;11.526;2022-08-14T08:22:05;2.65;;;2.45;;
22955;SDS011;40888;48.148;11.526;2022-08-14T08:24:31;3.92;;;2.85;;
22955;SDS011;40888;48.148;11.526;2022-08-14T08:27:00;3.42;;;2.60;;
22955;SDS011;40888;48.148;11.526;2022-08-14T08:29:26;3.17;;;2.40;;
22955;SDS011;40888;48.148;11.526;2022-08-14T08:31:53;2.70;;;2.50;;
22955;SDS011;40888;48.148;11.526;2022-08-14T08:34:19;2.92;;;2.65;;
22955;SDS011;40888;48.148;11.526;2022-08-14T08:36:46;2.70;;;2.50;;
22955;SDS011;40888;48.148;11.526;2022-08-14T08:39:12;2.63;;;2.45;;
22955;SDS011;40888;48.148;11.526;2022-08-14T08:41:42;3.90;;;2.70;;
22955;SDS011;40888;48.148;11.526;2022-08-14T08:44:08;3.03;;;2.72;;
22955;SDS011;40888;48.148;11.526;2022-08-14T08:46:34;2.53;;;2.38;;
22955;SDS011;40888;48.148;11.526;2022-08-14T08:49:01;2.55;;;2.35;;
22955;SDS011;40888;48.148;11.526;2022-08-14T08:51:28;2.72;;;2.53;;
22955;SDS011;40888;48.148;11.526;2022-08-14T08:53:59;3.78;;;2.63;;
22955;SDS011;40888;48.148;11.526;2022-08-14T08:56:33;2.88;;;2.67;;
22955;SDS011;40888;48.148;11.526;2022-08-14T08:58:59;3.83;;;2.40;;
22955;SDS011;40888;48.148;11.526;2022-08-14T09:01:26;2.85;;;2.65;;
22955;SDS011;40888;48.148;11.526;2022-08-14T09:04:00;2.95;;;2.63;;
22955;SDS011;40888;48.148;11.526;2022-08-14T09:06:26;3.22;;;2.92;;
22955;SDS011;40888;48.148;11.526;2022-08-14T09:08:52;3.60;;;2.85;;
22955;SDS011;40888;48.148;11.526;2022-08-14T09:11:19;4.00;;;2.47;;
22955;SDS011;40888;48.148;11.526;2022-08-14T09:13:50;2.92;;;2.72;;
22955;SDS011;40888;48.148;11.526;2022-08-14T09:16:20;3.00;;;2.80;;
22955;SDS011;40888;48.148;11.526;2022-08-14T09:18:47;2.60;;;2.50;;
22955;SDS011;40888;48.148;11.526;2022-08-14T09:21:13;3.10;;;2.90;;
22955;SDS011;40888;48.148;11.526;2022-08-14T09:23:40;3.03;;;2.60;;
22955;SDS011;40888;48.148;11.526;2022-08-14T09:26:06;4.53;;;2.75;;
22955;SDS011;40888;48.148;11.526;2022-08-14T09:28:32;4.40;;;2.50;;
22955;SDS011;40888;48.148;11.526;2022-08-14T09:30:58;2.70;;;2.50;;
22955;SDS011;40888;48.148;11.526;2022-08-14T09:33:28;2.92;;;2.72;;
22955;SDS011;40888;48.148;11.526;2022-08-14T09:38:43;2.58;;;2.38;;
22955;SDS011;40888;48.148;11.526;2022-08-14T09:44:39;3.20;;;3.00;;
22955;SDS011;40888;48.148;11.526;2022-08-14T09:46:52;2.75;;;2.50;;
22955;SDS011;40888;48.148;11.526;2022-08-14T09:49:28;4.35;;;3.05;;
22955;SDS011;40888;48.148;11.526;2022-08-14T09:52:01;3.03;;;2.67;;
22955;SDS011;40888;48.148;11.526;2022-08-14T09:54:39;2.88;;;2.67;;
22955;SDS011;40888;48.148;11.526;2022-08-14T09:57:07;3.58;;;3.28;;
22955;SDS011;40888;48.148;11.526;2022-08-14T09:59:44;3.17;;;2.97;;
22955;SDS011;40888;48.148;11.526;2022-08-14T10:02:29;3.83;;;2.90;;
22955;SDS011;40888;48.148;11.526;2022-08-14T10:05:08;3.05;;;2.80;;
22955;SDS011;40888;48.148;11.526;2022-08-14T10:07:56;3.40;;;3.10;;
22955;SDS011;40888;48.148;11.526;2022-08-14T10:12:53;3.58;;;3.28;;
22955;SDS011;40888;48.148;11.526;2022-08-14T10:15:24;3.88;;;2.80;;
22955;SDS011;40888;48.148;11.526;2022-08-14T10:20:33;2.88;;;2.67;;
22955;SDS011;40888;48.148;11.526;2022-08-14T10:23:16;2.70;;;2.55;;
22955;SDS011;40888;48.148;11.526;2022-08-14T10:26:04;2.60;;;2.40;;
22955;SDS011;40888;48.148;11.526;2022-08-14T10:28:36;2.50;;;2.40;;
22955;SDS011;40888;48.148;11.526;2022-08-14T10:31:03;2.55;;;2.40;;
22955;SDS011;40888;48.148;11.526;2022-08-14T10:33:40;2.92;;;2.67;;
22955;SDS011;40888;48.148;11.526;2022-08-14T10:36:06;3.10;;;2.90;;
22955;SDS011;40888;48.148;11.526;2022-08-14T10:38:33;3.10;;;2.90;;
22955;SDS011;40888;48.148;11.526;2022-08-14T10:41:17;4.93;;;2.88;;
22955;SDS011;40888;48.148;11.526;2022-08-14T10:43:44;3.05;;;2.83;;
22955;SDS011;40888;48.148;11.526;2022-08-14T10:46:13;5.93;;;2.50;;
22955;SDS011;40888;48.148;11.526;2022-08-14T10:48:40;3.13;;;2.92;;
22955;SDS011;40888;48.148;11.526;2022-08-14T10:51:07;3.15;;;2.78;;
22955;SDS011;40888;48.148;11.526;2022-08-14T10:53:34;2.55;;;2.35;;
22955;SDS011;40888;48.148;11.526;2022-08-14T10:56:02;2.78;;;2.60;;
22955;SDS011;40888;48.148;11.526;2022-08-14T10:58:31;3.40;;;2.60;;
22955;SDS011;40888;48.148;11.526;2022-08-14T11:00:58;2.88;;;2.67;;
22955;SDS011;40888;48.148;11.526;2022-08-14T11:03:35;2.70;;;2.50;;
22955;SDS011;40888;48.148;11.526;2022-08-14T11:06:10;2.75;;;2.38;;
22955;SDS011;40888;48.148;11.526;2022-08-14T11:08:38;2.80;;;2.60;;
22955;SDS011;40888;48.148;11.526;2022-08-14T11:11:05;2.30;;;2.20;;
22955;SDS011;40888;48.148;11.526;2022-08-14T11:13:31;2.97;;;2.63;;
22955;SDS011;40888;48.148;11.526;2022-08-14T11:15:59;3.55;;;3.05;;
22955;SDS011;40888;48.148;11.526;2022-08-14T11:18:26;2.95;;;2.65;;
22955;SDS011;40888;48.148;11.526;2022-08-14T11:20:56;3.15;;;2.53;;
22955;SDS011;40888;48.148;11.526;2022-08-14T11:23:30;2.65;;;2.45;;
22955;SDS011;40888;48.148;11.526;2022-08-14T11:25:58;3.08;;;2.78;;
22955;SDS011;40888;48.148;11.526;2022-08-14T11:28:25;2.63;;;2.40;;
22955;SDS011;40888;48.148;11.526;2022-08-14T11:30:51;2.88;;;2.55;;
22955;SDS011;40888;48.148;11.526;2022-08-14T11:33:21;3.92;;;2.85;;
22955;SDS011;40888;48.148;11.526;2022-08-14T11:35:49;2.60;;;2.40;;
22955;SDS011;40888;48.148;11.526;2022-08-14T11:38:15;2.70;;;2.50;;
22955;SDS011;40888;48.148;11.526;2022-08-14T11:40:44;2.40;;;2.17;;
22955;SDS011;40888;48.148;11.526;2022-08-14T11:43:10;2.47;;;2.38;;
22955;SDS011;40888;48.148;11.526;2022-08-14T11:45:38;2.72;;;2.53;;
22955;SDS011;40888;48.148;11.526;2022-08-14T11:48:23;2.38;;;2.28;;
22955;SDS011;40888;48.148;11.526;2022-08-14T11:50:50;3.47;;;2.80;;
22955;SDS011;40888;48.148;11.526;2022-08-14T11:55:53;2.20;;;2.10;;
22955;SDS011;40888;48.148;11.526;2022-08-14T11:58:23;2.78;;;2.50;;
22955;SDS011;40888;48.148;11.526;2022-08-14T12:00:51;2.67;;;2.30;;
22955;SDS011;40888;48.148;11.526;2022-08-14T12:03:18;2.33;;;2.22;;
22955;SDS011;40888;48.148;11.526;2022-08-14T12:05:44;2.53;;;2.33;;
22955;SDS011;40888;48.148;11.526;2022-08-14T12:08:11;2.22;;;2.13;;
22955;SDS011;40888;48.148;11.526;2022-08-14T12:10:38;2.45;;;2.22;;
22955;SDS011;40888;48.148;11.526;2022-08-14T12:13:17;4.22;;;2.20;;
22955;SDS011;40888;48.148;11.526;2022-08-14T12:15:45;2.22;;;2.13;;
22955;SDS011;40888;48.148;11.526;2022-08-14T12:18:13;8.05;;;3.00;;
22955;SDS011;40888;48.148;11.526;2022-08-14T12:20:40;2.15;;;2.05;;
22955;SDS011;40888;48.148;11.526;2022-08-14T12:23:18;2.70;;;2.50;;
22955;SDS011;40888;48.148;11.526;2022-08-14T12:25:45;2.67;;;2.47;;
22955;SDS011;40888;48.148;11.526;2022-08-14T12:28:11;2.58;;;2.38;;
22955;SDS011;40888;48.148;11.526;2022-08-14T12:30:41;3.45;;;2.33;;
22955;SDS011;40888;48.148;11.526;2022-08-14T12:35:49;3.20;;;2.10;;
22955;SDS011;40888;48.148;11.526;2022-08-14T12:38:16;2.53;;;2.33;;
22955;SDS011;40888;48.148;11.526;2022-08-14T12:40:50;5.25;;;2.70;;
22955;SDS011;40888;48.148;11.526;2022-08-14T12:43:16;2.22;;;2.10;;
22955;SDS011;40888;48.148;11.526;2022-08-14T12:45:47;2.38;;;1.92;;
22955;SDS011;40888;48.148;11.526;2022-08-14T12:48:19;3.60;;;1.98;;
22955;SDS011;40888;48.148;11.526;2022-08-14T12:50:46;2.28;;;2.17;;
22955;SDS011;40888;48.148;11.526;2022-08-14T12:53:16;2.38;;;2.10;;
22955;SDS011;40888;48.148;11.526;2022-08-14T12:55:43;2.20;;;2.10;;
22955;SDS011;40888;48.148;11.526;2022-08-14T12:58:09;2.25;;;2.10;;
22955;SDS011;40888;48.148;11.526;2022-08-14T13:00:37;2.95;;;2.63;;
22955;SDS011;40888;48.148;11.526;2022-08-14T13:03:03;2.70;;;2.55;;
22955;SDS011;40888;48.148;11.526;2022-08-14T13:05:32;3.05;;;2.53;;
22955;SDS011;40888;48.148;11.526;2022-08-14T13:08:03;2.78;;;2.58;;
22955;SDS011;40888;48.148;11.526;2022-08-14T13:10:33;2.20;;;2.10;;
22955;SDS011;40888;48.148;11.526;2022-08-14T13:13:00;3.58;;;2.40;;
22955;SDS011;40888;48.148;11.526;2022-08-14T13:15:26;3.15;;;2.10;;
22955;SDS011;40888;48.148;11.526;2022-08-14T13:17:53;2.72;;;2.13;;
22955;SDS011;40888;48.148;11.526;2022-08-14T13:20:22;2.60;;;2.40;;
22955;SDS011;40888;48.148;11.526;2022-08-14T13:22:48;2.95;;;2.75;;
22955;SDS011;40888;48.148;11.526;2022-08-14T13:25:15;2.97;;;2.78;;
22955;SDS011;40888;48.148;11.526;2022-08-14T13:27:51;3.05;;;2.85;;
22955;SDS011;40888;48.148;11.526;2022-08-14T13:30:19;4.43;;;2.97;;
22955;SDS011;40888;48.148;11.526;2022-08-14T13:32:45;3.08;;;2.78;;
22955;SDS011;40888;48.148;11.526;2022-08-14T13:35:12;3.30;;;2.72;;
22955;SDS011;40888;48.148;11.526;2022-08-14T13:37:40;2.90;;;2.70;;
22955;SDS011;40888;48.148;11.526;2022-08-14T13:40:09;2.67;;;2.58;;
22955;SDS011;40888;48.148;11.526;2022-08-14T13:42:36;3.17;;;2.50;;
22955;SDS011;40888;48.148;11.526;2022-08-14T13:45:06;2.92;;;2.30;;
22955;SDS011;40888;48.148;11.526;2022-08-14T13:47:32;4.70;;;2.50;;
22955;SDS011;40888;48.148;11.526;2022-08-14T13:50:00;3.08;;;2.67;;
22955;SDS011;40888;48.148;11.526;2022-08-14T13:55:06;3.30;;;2.97;;
22955;SDS011;40888;48.148;11.526;2022-08-14T13:57:33;2.90;;;2.70;;
22955;SDS011;40888;48.148;11.526;2022-08-14T14:00:02;2.63;;;2.42;;
22955;SDS011;40888;48.148;11.526;2022-08-14T14:02:36;2.90;;;2.70;;
22955;SDS011;40888;48.148;11.526;2022-08-14T14:05:03;2.85;;;2.70;;
22955;SDS011;40888;48.148;11.526;2022-08-14T14:07:29;4.63;;;2.67;;
22955;SDS011;40888;48.148;11.526;2022-08-14T14:09:56;3.53;;;3.22;;
22955;SDS011;40888;48.148;11.526;2022-08-14T14:12:23;2.72;;;2.53;;
22955;SDS011;40888;48.148;11.526;2022-08-14T14:14:49;3.20;;;2.72;;
22955;SDS011;40888;48.148;11.526;2022-08-14T14:17:16;3.80;;;2.67;;
22955;SDS011;40888;48.148;11.526;2022-08-14T14:19:48;3.10;;;2.80;;
22955;SDS011;40888;48.148;11.526;2022-08-14T14:22:15;2.97;;;2.78;;
22955;SDS011;40888;48.148;11.526;2022-08-14T14:24:41;2.78;;;2.58;;
22955;SDS011;40888;48.148;11.526;2022-08-14T14:27:09;3.08;;;2.88;;
22955;SDS011;40888;48.148;11.526;2022-08-14T14:29:35;2.80;;;2.60;;
22955;SDS011;40888;48.148;11.526;2022-08-14T14:32:02;3.50;;;3.25;;
22955;SDS011;40888;48.148;11.526;2022-08-14T14:34:29;3.00;;;2.80;;
22955;SDS011;40888;48.148;11.526;2022-08-14T14:37:01;4.72;;;2.80;;
22955;SDS011;40888;48.148;11.526;2022-08-14T14:39:29;3.28;;;2.92;;
22955;SDS011;40888;48.148;11.526;2022-08-14T14:41:56;2.90;;;2.70;;
22955;SDS011;40888;48.148;11.526;2022-08-14T14:44:27;3.15;;;2.95;;
22955;SDS011;40888;48.148;11.526;2022-08-14T14:46:57;2.65;;;2.45;;
22955;SDS011;40888;48.148;11.526;2022-08-14T14:49:25;2.78;;;2.67;;
22955;SDS011;40888;48.148;11.526;2022-08-14T14:51:53;3.85;;;2.70;;
22955;SDS011;40888;48.148;11.526;2022-08-14T14:54:23;3.13;;;2.72;;
22955;SDS011;40888;48.148;11.526;2022-08-14T14:56:49;3.20;;;3.00;;
22955;SDS011;40888;48.148;11.526;2022-08-14T14:59:16;3.78;;;2.70;;